createdAt,value
2022-08-04T00:01:34.432Z,7.63
2022-08-04T00:04:04.959Z,8.48
2022-08-04T00:06:45.141Z,14.38
2022-08-04T00:09:18.220Z,12.73
2022-08-04T00:11:47.776Z,8.65
2022-08-04T00:14:17.151Z,8.52
2022-08-04T00:16:44.728Z,9.85
2022-08-04T00:19:14.229Z,10.38
2022-08-04T00:21:44.455Z,8.65
2022-08-04T00:24:11.606Z,9.57
2022-08-04T00:26:37.079Z,9.88
2022-08-04T00:29:01.704Z,12.15
2022-08-04T00:31:53.944Z,10.38
2022-08-04T00:34:13.682Z,10.50
2022-08-04T00:36:37.480Z,9.27
2022-08-04T00:39:01.934Z,8.38
2022-08-04T00:41:56.209Z,10.18
2022-08-04T00:44:39.405Z,9.27
2022-08-04T00:47:17.662Z,9.00
2022-08-04T00:50:06.894Z,12.25
2022-08-04T00:52:42.608Z,11.32
2022-08-04T00:55:25.111Z,10.23
2022-08-04T00:58:22.536Z,9.18
2022-08-04T01:00:56.413Z,8.25
2022-08-04T01:03:28.331Z,11.00
2022-08-04T01:06:08.006Z,8.70
2022-08-04T01:08:53.535Z,11.55
2022-08-04T01:11:33.593Z,11.73
2022-08-04T01:14:33.835Z,10.43
2022-08-04T01:17:08.347Z,12.40
2022-08-04T01:20:04.012Z,11.25
2022-08-04T01:23:29.174Z,9.02
2022-08-04T01:26:57.629Z,13.23
2022-08-04T01:29:29.310Z,10.50
2022-08-04T01:32:09.188Z,11.65
2022-08-04T01:34:37.923Z,10.05
2022-08-04T01:37:10.313Z,9.88
2022-08-04T01:39:42.804Z,11.73
2022-08-04T01:42:09.735Z,9.82
2022-08-04T01:44:37.175Z,9.77
2022-08-04T01:47:03.108Z,10.45
2022-08-04T01:49:40.210Z,11.52
2022-08-04T01:52:05.432Z,10.32
2022-08-04T01:54:30.860Z,12.40
2022-08-04T01:56:56.381Z,10.30
2022-08-04T01:59:21.844Z,12.38
2022-08-04T02:01:47.361Z,9.30
2022-08-04T02:04:21.359Z,10.23
2022-08-04T02:07:02.892Z,10.68
2022-08-04T02:09:35.416Z,11.40
2022-08-04T02:12:27.994Z,9.57
2022-08-04T02:14:59.988Z,15.30
2022-08-04T02:17:32.469Z,10.35
2022-08-04T02:20:10.623Z,13.98
2022-08-04T02:22:40.383Z,11.02
2022-08-04T02:25:09.561Z,10.60
2022-08-04T02:28:18.209Z,13.55
2022-08-04T02:30:53.335Z,9.40
2022-08-04T02:33:30.692Z,10.48
2022-08-04T02:36:02.418Z,12.48
2022-08-04T02:38:44.589Z,11.05
2022-08-04T02:41:11.400Z,11.32
2022-08-04T02:43:50.848Z,10.98
2022-08-04T02:46:19.840Z,7.93
2022-08-04T02:48:48.011Z,10.18
2022-08-04T02:51:15.022Z,12.80
2022-08-04T02:53:39.301Z,9.50
2022-08-04T02:56:04.257Z,12.60
2022-08-04T02:58:31.558Z,10.55
2022-08-04T03:00:55.337Z,12.90
2022-08-04T03:03:32.651Z,9.43
2022-08-04T03:06:48.799Z,9.32
2022-08-04T03:09:38.719Z,10.48
2022-08-04T03:12:29.353Z,8.73
2022-08-04T03:15:33.446Z,10.30
2022-08-04T03:18:32.763Z,11.07
2022-08-04T03:21:34.751Z,11.63
2022-08-04T03:24:53.780Z,9.60
2022-08-04T03:28:10.787Z,10.07
2022-08-04T03:30:57.973Z,11.18
2022-08-04T03:33:54.219Z,9.77
2022-08-04T03:36:48.463Z,10.10
2022-08-04T03:40:08.925Z,15.77
2022-08-04T03:43:05.264Z,15.82
2022-08-04T03:46:11.402Z,18.67
2022-08-04T03:49:37.107Z,35.20
2022-08-04T03:52:32.355Z,11.75
2022-08-04T03:55:44.007Z,17.17
2022-08-04T03:58:44.947Z,37.55
2022-08-04T04:01:27.079Z,101.03
2022-08-04T04:04:23.442Z,37.05
2022-08-04T04:07:27.196Z,18.33
2022-08-04T04:10:39.804Z,29.25
2022-08-04T04:13:50.448Z,11.07
2022-08-04T04:16:48.940Z,18.02
2022-08-04T04:19:34.213Z,16.50
2022-08-04T04:22:25.047Z,13.02
2022-08-04T04:25:10.063Z,13.05
2022-08-04T04:27:50.442Z,15.98
2022-08-04T04:30:20.701Z,12.95
2022-08-04T04:33:07.892Z,9.90
2022-08-04T04:35:40.117Z,12.95
2022-08-04T04:38:35.965Z,14.70
2022-08-04T04:41:34.091Z,11.52
2022-08-04T04:44:45.624Z,11.43
2022-08-04T04:47:43.094Z,11.63
2022-08-04T04:50:14.556Z,11.45
2022-08-04T04:52:43.551Z,12.02
2022-08-04T04:55:17.321Z,12.77
2022-08-04T04:57:53.853Z,11.95
2022-08-04T05:00:20.027Z,11.95
2022-08-04T05:03:17.534Z,11.05
2022-08-04T05:06:38.436Z,10.77
2022-08-04T05:09:17.163Z,10.07
2022-08-04T05:14:26.362Z,11.30
2022-08-04T05:15:12.233Z,9.32
2022-08-04T05:17:41.344Z,11.32
2022-08-04T05:20:10.418Z,11.63
2022-08-04T05:22:41.306Z,10.52
2022-08-04T05:25:15.910Z,12.50
2022-08-04T05:27:47.136Z,9.70
2022-08-04T05:30:14.271Z,11.63
2022-08-04T05:32:46.979Z,11.82
2022-08-04T05:35:47.858Z,10.20
2022-08-04T05:38:04.868Z,14.88
2022-08-04T05:40:28.740Z,10.90
2022-08-04T05:42:55.327Z,14.88
2022-08-04T05:45:21.969Z,12.90
2022-08-04T05:47:46.969Z,12.23
2022-08-04T05:50:11.122Z,13.85
2022-08-04T05:52:37.799Z,15.27
2022-08-04T05:55:03.187Z,12.40
2022-08-04T05:57:27.688Z,12.45
2022-08-04T05:59:53.766Z,17.00
2022-08-04T06:02:19.949Z,13.38
2022-08-04T06:04:46.891Z,13.73
2022-08-04T06:07:11.719Z,13.63
2022-08-04T06:09:35.900Z,14.25
2022-08-04T06:12:04.891Z,15.98
2022-08-04T06:14:34.580Z,10.32
2022-08-04T06:16:59.536Z,13.80
2022-08-04T06:20:02.379Z,11.23
2022-08-04T06:22:13.813Z,14.43
2022-08-04T06:24:39.234Z,7.35
2022-08-04T06:27:06.349Z,13.57
2022-08-04T06:29:36.256Z,9.52
2022-08-04T06:32:29.490Z,6.60
2022-08-04T06:34:49.079Z,13.88
2022-08-04T06:37:24.105Z,10.27
2022-08-04T06:39:58.136Z,11.77
2022-08-04T06:42:24.536Z,8.70
2022-08-04T06:44:52.505Z,9.43
2022-08-04T06:47:19.548Z,9.73
2022-08-04T06:51:23.329Z,9.68
2022-08-04T06:52:29.758Z,10.75
2022-08-04T06:54:55.745Z,9.75
2022-08-04T06:57:23.614Z,13.30
2022-08-04T06:59:52.197Z,7.68
2022-08-04T07:02:18.889Z,9.35
2022-08-04T07:04:43.150Z,10.88
2022-08-04T07:07:07.120Z,8.23
2022-08-04T07:09:33.039Z,6.75
2022-08-04T07:11:57.083Z,8.43
2022-08-04T07:14:21.653Z,12.25
2022-08-04T07:16:47.578Z,7.43
2022-08-04T07:19:14.732Z,11.10
2022-08-04T07:21:41.671Z,13.15
2022-08-04T07:24:33.104Z,11.98
2022-08-04T07:26:57.473Z,10.27
2022-08-04T07:29:21.258Z,11.27
2022-08-04T07:31:45.478Z,10.20
2022-08-04T07:34:11.518Z,8.20
2022-08-04T07:36:50.459Z,9.57
2022-08-04T07:39:26.402Z,11.15
2022-08-04T07:41:55.720Z,9.73
2022-08-04T07:44:19.972Z,10.20
2022-08-04T07:46:44.736Z,7.63
2022-08-04T07:49:09.215Z,15.00
2022-08-04T07:51:36.445Z,12.35
2022-08-04T07:54:03.443Z,8.40
2022-08-04T07:56:28.078Z,6.43
2022-08-04T07:58:53.299Z,9.93
2022-08-04T08:01:17.561Z,13.68
2022-08-04T08:03:42.769Z,11.40
2022-08-04T08:06:17.295Z,10.48
2022-08-04T08:08:50.864Z,6.80
2022-08-04T08:11:14.833Z,10.00
2022-08-04T08:13:39.229Z,11.10
2022-08-04T08:16:05.321Z,6.38
2022-08-04T08:18:29.136Z,8.73
2022-08-04T08:20:53.787Z,6.53
2022-08-04T08:23:17.649Z,7.10
2022-08-04T08:25:45.792Z,12.35
2022-08-04T08:28:09.865Z,8.98
2022-08-04T08:30:34.956Z,8.98
2022-08-04T08:33:06.409Z,7.38
2022-08-04T08:35:39.841Z,9.88
2022-08-04T08:38:24.428Z,7.38
2022-08-04T08:40:55.445Z,13.73
2022-08-04T08:44:05.824Z,7.57
2022-08-04T08:46:56.981Z,7.18
2022-08-04T08:50:02.680Z,9.77
2022-08-04T08:52:56.644Z,9.63
2022-08-04T08:55:41.300Z,9.07
2022-08-04T08:58:47.327Z,8.85
2022-08-04T09:01:27.588Z,12.50
2022-08-04T09:04:57.633Z,13.40
2022-08-04T09:07:50.972Z,6.65
2022-08-04T09:10:20.988Z,5.07
2022-08-04T09:12:54.319Z,6.07
2022-08-04T09:15:29.808Z,6.60
2022-08-04T09:18:01.102Z,6.15
2022-08-04T09:20:33.329Z,6.25
2022-08-04T09:23:14.868Z,6.40
2022-08-04T09:25:49.775Z,4.28
2022-08-04T09:28:52.459Z,7.07
2022-08-04T09:31:14.394Z,4.68
2022-08-04T09:33:49.884Z,7.97
2022-08-04T09:36:29.993Z,5.15
2022-08-04T09:39:09.719Z,7.30
2022-08-04T09:41:49.677Z,6.95
2022-08-04T09:44:51.334Z,6.93
2022-08-04T09:47:17.946Z,7.10
2022-08-04T09:49:51.780Z,6.63
2022-08-04T09:52:29.763Z,5.22
2022-08-04T09:55:07.067Z,8.63
2022-08-04T09:57:47.368Z,4.65
2022-08-04T10:00:16.857Z,5.47
2022-08-04T10:02:45.833Z,3.42
2022-08-04T10:05:16.389Z,6.00
2022-08-04T10:08:16.089Z,7.90
2022-08-04T10:10:53.678Z,7.00
2022-08-04T10:13:34.893Z,5.03
2022-08-04T10:16:13.405Z,3.63
2022-08-04T10:18:54.711Z,3.75
2022-08-04T10:21:26.952Z,7.40
2022-08-04T10:24:25.292Z,4.40
2022-08-04T10:26:58.477Z,3.58
2022-08-04T10:29:29.856Z,3.78
2022-08-04T10:32:02.203Z,2.75
2022-08-04T10:34:31.231Z,4.78
2022-08-04T10:37:03.806Z,3.55
2022-08-04T10:39:43.793Z,3.15
2022-08-04T10:42:18.297Z,5.28
2022-08-04T10:44:59.585Z,5.47
2022-08-04T10:47:28.676Z,6.97
2022-08-04T10:49:57.653Z,4.00
2022-08-04T10:52:33.858Z,5.90
2022-08-04T10:55:07.153Z,6.18
2022-08-04T10:57:39.120Z,4.65
2022-08-04T11:00:07.292Z,5.97
2022-08-04T11:02:41.548Z,4.30
2022-08-04T11:05:19.300Z,5.43
2022-08-04T11:07:47.341Z,3.55
2022-08-04T11:10:11.261Z,5.05
2022-08-04T11:12:37.275Z,7.20
2022-08-04T11:15:06.435Z,4.50
2022-08-04T11:17:36.214Z,4.78
2022-08-04T11:20:34.181Z,4.85
2022-08-04T11:23:05.652Z,4.50
2022-08-04T11:25:38.522Z,3.33
2022-08-04T11:28:13.267Z,3.20
2022-08-04T11:30:45.756Z,3.65
2022-08-04T11:33:23.612Z,4.60
2022-08-04T11:35:53.814Z,4.30
2022-08-04T11:38:27.967Z,4.15
2022-08-04T11:41:03.126Z,3.75
2022-08-04T11:44:00.933Z,4.18
2022-08-04T11:46:28.900Z,5.20
2022-08-04T11:49:03.438Z,5.40
2022-08-04T11:51:29.899Z,4.18
2022-08-04T11:53:53.653Z,4.20
2022-08-04T11:56:37.194Z,7.70
2022-08-04T11:59:05.250Z,3.95
2022-08-04T12:01:43.823Z,5.60
2022-08-04T12:04:15.628Z,3.17
2022-08-04T12:06:56.866Z,3.95
2022-08-04T12:09:36.222Z,3.50
2022-08-04T12:12:14.308Z,6.15
2022-08-04T12:14:50.752Z,5.32
2022-08-04T12:17:23.969Z,6.18
2022-08-04T12:20:05.200Z,4.72
2022-08-04T12:22:48.357Z,3.33
2022-08-04T12:25:19.553Z,3.55
2022-08-04T12:27:51.341Z,4.60
2022-08-04T12:31:00.427Z,5.68
2022-08-04T12:33:08.597Z,5.10
2022-08-04T12:35:40.655Z,6.95
2022-08-04T12:38:28.236Z,7.45
2022-08-04T12:40:56.981Z,8.85
2022-08-04T12:43:25.984Z,6.97
2022-08-04T12:45:56.835Z,9.07
2022-08-04T12:48:21.767Z,8.70
2022-08-04T12:50:49.715Z,15.63
2022-08-04T12:53:19.538Z,8.23
2022-08-04T12:56:01.389Z,8.45
2022-08-04T12:58:42.000Z,4.32
2022-08-04T13:02:09.699Z,3.40
2022-08-04T13:04:02.222Z,3.67
2022-08-04T13:06:28.977Z,4.13
2022-08-04T13:08:53.189Z,7.65
2022-08-04T13:11:19.137Z,7.28
2022-08-04T13:13:45.771Z,8.25
2022-08-04T13:16:14.331Z,3.67
2022-08-04T13:18:42.819Z,5.95
2022-08-04T13:21:20.570Z,4.18
2022-08-04T13:24:19.627Z,5.15
2022-08-04T13:26:42.376Z,5.05
2022-08-04T13:29:17.025Z,4.00
2022-08-04T13:31:52.954Z,5.97
2022-08-04T13:34:19.347Z,8.63
2022-08-04T13:36:44.953Z,9.68
2022-08-04T13:39:17.451Z,11.73
2022-08-04T13:41:56.971Z,17.00
2022-08-04T13:44:27.844Z,13.63
2022-08-04T13:46:57.940Z,11.05
2022-08-04T13:49:42.766Z,9.25
2022-08-04T13:52:11.060Z,7.22
2022-08-04T13:54:42.454Z,5.75
2022-08-04T13:57:14.150Z,10.80
2022-08-04T13:59:40.119Z,7.97
2022-08-04T14:02:11.348Z,4.90
2022-08-04T14:04:42.272Z,4.43
2022-08-04T14:07:17.746Z,3.55
2022-08-04T14:10:03.442Z,5.10
2022-08-04T14:12:45.699Z,3.15
2022-08-04T14:16:01.206Z,3.13
2022-08-04T14:18:22.570Z,2.90
2022-08-04T14:21:09.495Z,4.82
2022-08-04T14:23:47.735Z,6.97
2022-08-04T14:26:31.449Z,5.90
2022-08-04T14:29:28.463Z,5.88
2022-08-04T14:31:57.776Z,7.53
2022-08-04T14:34:30.054Z,8.45
2022-08-04T14:37:16.981Z,2.90
2022-08-04T14:39:40.496Z,3.70
2022-08-04T14:42:04.773Z,3.90
2022-08-04T14:44:28.704Z,4.22
2022-08-04T14:46:54.481Z,3.47
2022-08-04T14:49:18.251Z,3.83
2022-08-04T14:51:45.452Z,2.47
2022-08-04T14:54:15.806Z,5.20
2022-08-04T14:56:47.200Z,2.42
2022-08-04T14:59:12.912Z,4.10
2022-08-04T15:01:37.843Z,6.88
2022-08-04T15:04:04.580Z,6.97
2022-08-04T15:06:30.537Z,7.53
2022-08-04T15:08:58.578Z,5.53
2022-08-04T15:11:24.391Z,6.57
2022-08-04T15:13:48.525Z,3.85
2022-08-04T15:16:13.971Z,6.38
2022-08-04T15:18:39.388Z,8.95
2022-08-04T15:21:04.126Z,4.43
2022-08-04T15:23:38.428Z,5.25
2022-08-04T15:26:07.994Z,6.13
2022-08-04T15:28:34.663Z,5.70
2022-08-04T15:30:59.319Z,3.63
2022-08-04T15:33:33.566Z,2.65
2022-08-04T15:36:14.445Z,5.03
2022-08-04T15:38:43.722Z,3.55
2022-08-04T15:41:15.089Z,2.47
2022-08-04T15:44:00.364Z,2.25
2022-08-04T15:47:11.548Z,5.78
2022-08-04T15:49:35.420Z,3.33
2022-08-04T15:52:01.890Z,5.43
2022-08-04T15:54:27.833Z,3.03
2022-08-04T15:57:01.976Z,4.32
2022-08-04T16:00:08.742Z,2.50
2022-08-04T16:02:45.503Z,3.65
2022-08-04T16:05:43.371Z,4.53
2022-08-04T16:08:18.132Z,5.82
2022-08-04T16:10:44.778Z,4.45
2022-08-04T16:13:13.931Z,3.00
2022-08-04T16:15:46.924Z,2.60
2022-08-04T16:18:25.657Z,3.88
2022-08-04T16:20:52.041Z,4.45
2022-08-04T16:23:59.247Z,3.20
2022-08-04T16:26:54.694Z,4.07
2022-08-04T16:29:46.884Z,4.43
2022-08-04T16:32:17.085Z,4.25
2022-08-04T16:34:54.746Z,3.42
2022-08-04T16:37:21.078Z,4.15
2022-08-04T16:39:50.019Z,3.30
2022-08-04T16:42:36.296Z,2.80
2022-08-04T16:45:13.810Z,2.90
2022-08-04T16:48:04.299Z,4.47
2022-08-04T16:50:28.228Z,2.67
2022-08-04T16:52:54.000Z,2.65
2022-08-04T16:55:19.857Z,4.70
2022-08-04T16:57:47.524Z,3.95
2022-08-04T17:00:13.920Z,2.50
2022-08-04T17:02:38.202Z,6.47
2022-08-04T17:05:07.498Z,2.58
2022-08-04T17:08:07.253Z,4.18
2022-08-04T17:10:39.969Z,3.47
2022-08-04T17:14:03.414Z,3.22
2022-08-04T17:16:13.650Z,2.45
2022-08-04T17:18:45.280Z,4.43
2022-08-04T17:21:11.618Z,3.28
2022-08-04T17:24:13.041Z,3.13
2022-08-04T17:26:39.837Z,4.65
2022-08-04T17:29:05.584Z,3.95
2022-08-04T17:31:36.853Z,2.28
2022-08-04T17:34:04.003Z,3.65
2022-08-04T17:36:33.607Z,3.47
2022-08-04T17:39:01.197Z,4.05
2022-08-04T17:41:30.114Z,3.53
2022-08-04T17:44:04.720Z,5.13
2022-08-04T17:46:41.144Z,6.13
2022-08-04T17:49:11.099Z,7.15
2022-08-04T17:52:05.606Z,3.10
2022-08-04T17:54:36.678Z,4.38
2022-08-04T17:57:10.708Z,4.72
2022-08-04T17:59:52.058Z,5.18
2022-08-04T18:02:33.348Z,2.97
2022-08-04T18:05:08.026Z,3.22
2022-08-04T18:08:35.606Z,7.55
2022-08-04T18:10:27.626Z,9.63
2022-08-04T18:12:54.587Z,6.45
2022-08-04T18:15:25.612Z,9.05
2022-08-04T18:18:23.349Z,10.80
2022-08-04T18:20:50.034Z,6.10
2022-08-04T18:23:16.786Z,4.90
2022-08-04T18:25:51.403Z,7.25
2022-08-04T18:28:20.771Z,7.97
2022-08-04T18:30:55.657Z,5.47
2022-08-04T18:33:41.032Z,6.78
2022-08-04T18:36:33.571Z,6.40
2022-08-04T18:38:55.538Z,6.00
2022-08-04T18:41:19.959Z,10.10
2022-08-04T18:43:43.708Z,6.80
2022-08-04T18:46:19.807Z,5.43
2022-08-04T18:48:52.477Z,6.00
2022-08-04T18:51:23.838Z,5.40
2022-08-04T18:53:55.194Z,5.15
2022-08-04T18:59:10.220Z,7.72
2022-08-04T19:02:16.047Z,5.53
2022-08-04T19:04:32.967Z,9.23
2022-08-04T19:07:23.434Z,10.60
2022-08-04T19:09:52.104Z,7.25
2022-08-04T19:12:17.529Z,8.93
2022-08-04T19:14:57.791Z,4.97
2022-08-04T19:17:52.510Z,8.32
2022-08-04T19:20:16.130Z,5.35
2022-08-04T19:24:28.648Z,7.07
2022-08-04T19:26:02.479Z,6.68
2022-08-04T19:28:17.369Z,7.55
2022-08-04T19:30:41.449Z,6.53
2022-08-04T19:33:05.902Z,6.35
2022-08-04T19:35:31.592Z,7.20
2022-08-04T19:38:11.029Z,6.65
2022-08-04T19:40:42.140Z,8.60
2022-08-04T19:43:16.484Z,9.07
2022-08-04T19:45:44.841Z,8.57
2022-08-04T19:48:22.048Z,8.00
2022-08-04T19:50:48.309Z,7.60
2022-08-04T19:53:19.368Z,5.10
2022-08-04T19:55:43.800Z,8.02
2022-08-04T19:58:13.926Z,5.63
2022-08-04T20:00:39.420Z,4.65
2022-08-04T20:03:03.535Z,9.20
2022-08-04T20:05:54.489Z,9.07
2022-08-04T20:08:18.636Z,8.38
2022-08-04T20:10:47.028Z,7.00
2022-08-04T20:13:15.872Z,10.95
2022-08-04T20:15:39.605Z,5.13
2022-08-04T20:18:35.926Z,5.63
2022-08-04T20:21:00.659Z,6.15
2022-08-04T20:23:47.706Z,7.53
2022-08-04T20:26:09.611Z,6.40
2022-08-04T20:28:36.818Z,5.63
2022-08-04T20:31:00.646Z,12.43
2022-08-04T20:33:24.325Z,6.60
2022-08-04T20:36:05.022Z,7.28
2022-08-04T20:38:33.778Z,8.27
2022-08-04T20:40:58.985Z,6.28
2022-08-04T20:43:25.037Z,7.88
2022-08-04T20:45:57.010Z,13.77
2022-08-04T20:48:23.173Z,14.25
2022-08-04T20:50:49.826Z,10.40
2022-08-04T20:53:16.822Z,8.15
2022-08-04T20:55:55.728Z,11.52
2022-08-04T20:58:19.944Z,10.55
2022-08-04T21:00:53.292Z,11.93
2022-08-04T21:03:17.104Z,14.65
2022-08-04T21:05:40.866Z,9.20
2022-08-04T21:08:05.425Z,12.88
2022-08-04T21:10:31.108Z,11.18
2022-08-04T21:12:56.621Z,13.30
2022-08-04T21:15:25.140Z,14.02
2022-08-04T21:17:58.776Z,9.13
2022-08-04T21:20:28.032Z,14.43
2022-08-04T21:22:52.148Z,13.15
2022-08-04T21:25:16.612Z,11.30
2022-08-04T21:27:44.911Z,12.85
2022-08-04T21:30:25.390Z,16.92
2022-08-04T21:32:50.077Z,11.80
2022-08-04T21:35:16.151Z,12.90
2022-08-04T21:37:58.083Z,22.33
2022-08-04T21:40:30.706Z,10.80
2022-08-04T21:43:00.600Z,15.40
2022-08-04T21:45:35.981Z,17.65
2022-08-04T21:48:00.434Z,15.40
2022-08-04T21:50:25.032Z,12.57
2022-08-04T21:52:54.448Z,10.82
2022-08-04T21:55:19.470Z,13.27
2022-08-04T21:57:43.355Z,13.70
2022-08-04T22:00:18.620Z,11.18
2022-08-04T22:02:44.985Z,12.88
2022-08-04T22:05:09.312Z,15.57
2022-08-04T22:07:50.204Z,13.73
2022-08-04T22:10:15.369Z,12.25
2022-08-04T22:12:46.383Z,12.40
2022-08-04T22:15:22.758Z,14.27
2022-08-04T22:18:00.839Z,14.02
2022-08-04T22:20:28.407Z,11.75
2022-08-04T22:22:54.190Z,12.85
2022-08-04T22:25:19.994Z,12.38
2022-08-04T22:28:03.694Z,11.63
2022-08-04T22:30:32.911Z,12.30
2022-08-04T22:32:57.212Z,11.90
2022-08-04T22:35:36.189Z,11.38
2022-08-04T22:38:20.631Z,13.05
2022-08-04T22:40:51.007Z,12.38
2022-08-04T22:43:32.779Z,11.85
2022-08-04T22:45:58.075Z,11.82
2022-08-04T22:48:22.312Z,12.20
2022-08-04T22:50:47.796Z,12.13
2022-08-04T22:53:11.570Z,11.75
2022-08-04T22:56:06.930Z,11.70
2022-08-04T22:58:28.606Z,14.18
2022-08-04T23:00:54.030Z,10.82
2022-08-04T23:03:37.562Z,11.57
2022-08-04T23:06:10.835Z,12.98
2022-08-04T23:08:36.398Z,14.20
2022-08-04T23:11:00.200Z,14.95
2022-08-04T23:13:24.705Z,14.32
2022-08-04T23:15:48.471Z,12.02
2022-08-04T23:18:12.265Z,10.75
2022-08-04T23:20:39.291Z,10.45
2022-08-04T23:23:15.085Z,15.77
2022-08-04T23:26:08.596Z,19.15
2022-08-04T23:28:22.825Z,9.90
2022-08-04T23:30:48.787Z,13.00
2022-08-04T23:33:12.565Z,12.93
2022-08-04T23:35:39.153Z,15.00
2022-08-04T23:38:30.953Z,11.63
2022-08-04T23:40:50.525Z,10.63
2022-08-04T23:43:17.906Z,14.00
2022-08-04T23:46:07.663Z,11.70
2022-08-04T23:48:25.818Z,9.38
2022-08-04T23:50:50.072Z,11.70
2022-08-04T23:53:18.595Z,20.15
2022-08-04T23:55:46.344Z,11.63
2022-08-04T23:58:18.560Z,13.02
